Overton RPC :: 200-A

liberation: 2021-10-09  07:30     latitude: 33.575198     longitude: -86.664147 61 birds
# LOFT PRING MILES ARRIVAL SPEED ToWin
1 VALHALLA LOFTS IF21-VALH-0188 210.359 2021-10-09 12:08:16.848 1330.428 00:00:00
2 VALHALLA LOFTS AU21-ARPU-8989 210.359 2021-10-09 12:08:39.775 1328.604 00:00:23
3 VALHALLA LOFTS AU21-ARPU-9000 210.359 2021-10-09 12:08:55.474 1327.358 00:00:39
4 VALHALLA LOFTS IF21-E-1598 210.359 2021-10-09 12:08:56.148 1327.304 00:00:39
5 VALHALLA LOFTS IF21-VALH-0111 210.359 2021-10-09 12:08:57.393 1327.205 00:00:41
6 VALHALLA LOFTS IF21-VALH-0154 210.359 2021-10-09 12:08:57.972 1327.159 00:00:41
7 VALHALLA LOFTS IF21-VALH-0182 210.359 2021-10-09 12:12:34.532 1310.208 00:04:18
8 VALHALLA LOFTS IF21-VALH-0149 210.359 2021-10-09 12:12:34.640 1310.199 00:04:18
9 VALHALLA LOFTS IF21-VALH-0139 210.359 2021-10-09 12:12:40.387 1309.755 00:04:24
10 VALHALLA LOFTS IF21-VALH-0172 210.359 2021-10-09 12:12:45.100 1309.392 00:04:28
11 VALHALLA LOFTS IF21-VALH-0151 210.359 2021-10-09 12:12:55.290 1308.606 00:04:38
12 VALHALLA LOFTS AU21-POP-0537 210.359 2021-10-09 12:13:32.904 1305.712 00:05:16
13 VALHALLA LOFTS IF21-VALH-0112 210.359 2021-10-09 12:18:54.018 1281.524 00:10:37
14 VALHALLA LOFTS IF21-VALH-0135 210.359 2021-10-09 12:22:41.720 1264.908 00:14:25
15 MONTEJANO LOFT IF21-ORP-0404 175.842 2021-10-09 11:40:20.620 1236.229 00:17:44
16 MONTEJANO LOFT IF21-E-1330 175.842 2021-10-09 11:40:20.996 1236.198 00:17:44
17 HONEY FARM LOFT AU21-NASH-9559 178.062 2021-10-09 11:48:07.671 1214.084 00:22:34
18 VALHALLA LOFTS AU21-BREW-2154 210.359 2021-10-09 12:35:20.272 1212.534 00:27:03
19 VALHALLA LOFTS IF21-VALH-0147 210.359 2021-10-09 12:37:27.664 1204.161 00:29:11
20 VALHALLA LOFTS AU21-ARPU-8999 210.359 2021-10-09 12:43:58.235 1179.195 00:35:41
21 VALHALLA LOFTS IF21-VALH-0101 210.359 2021-10-09 12:43:58.613 1179.172 00:35:42
22 VALHALLA LOFTS AU21-ARPU-8991 210.359 2021-10-09 12:55:50.096 1136.258 00:47:33
23 VALHALLA LOFTS IF21-E-1580 210.359 2021-10-09 13:03:26.353 1110.345 00:55:10
24 LET IT GO LOFT IF21-E-1459 217.162 2021-10-09 13:27:57.956 1067.715 01:10:41
25 VALHALLA LOFTS IF21-VALH-0175 210.359 2021-10-09 13:48:02.695 979.335 01:39:46
26 VALHALLA LOFTS AU21-POP-0536 210.359 2021-10-09 13:48:57.147 976.990 01:40:40
27 VALHALLA LOFTS IF21-VALH-0176 210.359 2021-10-09 13:54:00.103 964.143 01:45:43
28 PHILBETTER LOFT AU21-ARPU-8998 204.506 2021-10-09 13:44:32.279 961.001 01:44:00
29 PHILBETTER LOFT IF21-E-1552 204.506 2021-10-09 13:44:41.989 960.586 01:44:10
30 PHILBETTER LOFT IF21-VALH-0119 204.506 2021-10-09 13:45:08.945 959.435 01:44:37
31 PHILBETTER LOFT IF21-E-1566 204.506 2021-10-09 13:45:44.216 957.934 01:45:12
32 HONEY FARM LOFT IF21-FOYS-5476 178.062 2021-10-09 12:57:39.740 956.439 01:32:06
33 PHILBETTER LOFT IF21-E-1561 204.506 2021-10-09 13:47:36.311 953.195 01:47:04
34 PHILBETTER LOFT IF21-E-1553 204.506 2021-10-09 13:57:31.784 928.784 01:56:59
35 LET IT GO LOFT IF21-E-1405 217.162 2021-10-09 15:00:44.262 847.955 02:43:27
36 VALHALLA LOFTS IF21-VALH-0166 210.359 2021-10-09 14:47:01.884 847.153 02:38:45
37 PHILBETTER LOFT IF21-E-1556 204.506 2021-10-09 14:57:55.171 803.562 02:57:23
38 VALHALLA LOFTS AU21-BREW-2151 210.359 2021-10-09 15:41:56.619 752.592 03:33:40
39 VALHALLA LOFTS AU21-ARPU-8997 210.359 2021-10-09 15:42:01.498 752.467 03:33:45
40 VALHALLA LOFTS IF21-VALH-0194 210.359 2021-10-09 15:42:12.213 752.194 03:33:55
41 VALHALLA LOFTS IF21-VALH-0107 210.359 2021-10-09 15:42:33.983 751.640 03:34:17
42 HONEY FARM LOFT AU21-NASH-9591 178.062 2021-10-09 15:10:09.455 681.047 03:44:36
43 HONEY FARM LOFT IF21-ORP-0436 178.062 2021-10-09 15:38:39.193 641.332 04:13:06
44 HONEY FARM LOFT IF21-ORP-0412 178.062 2021-10-09 16:24:03.347 586.810 04:58:30
HONEY FARM LOFT IF21-ORP-0526 0 0000-00-00 00:00:00.000 0.000 00:00:00
LET IT GO LOFT IF21-ORP-0442 0 0000-00-00 00:00:00.000 0.000 00:00:00
LET IT GO LOFT IF21-ORP-0464 0 0000-00-00 00:00:00.000 0.000 00:00:00
LET IT GO LOFT IF21-ORP-0471 0 0000-00-00 00:00:00.000 0.000 00:00:00
LET IT GO LOFT IF21-ORP-0474 0 0000-00-00 00:00:00.000 0.000 00:00:00
LET IT GO LOFT IF21-ORP-0492 0 0000-00-00 00:00:00.000 0.000 00:00:00
MONTEJANO LOFT IF21-E-1343 0 0000-00-00 00:00:00.000 0.000 00:00:00
MONTEJANO LOFT IF21-E-1346 0 0000-00-00 00:00:00.000 0.000 00:00:00
MONTEJANO LOFT IF21-E-1432 0 0000-00-00 00:00:00.000 0.000 00:00:00
MONTEJANO LOFT IF21-E-1433 0 0000-00-00 00:00:00.000 0.000 00:00:00
MONTEJANO LOFT IF21-E-1440 0 0000-00-00 00:00:00.000 0.000 00:00:00
PHILBETTER LOFT IF21-E-1551 0 0000-00-00 00:00:00.000 0.000 00:00:00
VALHALLA LOFTS IF21-E-1592 0 0000-00-00 00:00:00.000 0.000 00:00:00
VALHALLA LOFTS IF21-VALH-0128 0 0000-00-00 00:00:00.000 0.000 00:00:00
VALHALLA LOFTS IF21-VALH-0148 0 0000-00-00 00:00:00.000 0.000 00:00:00
VALHALLA LOFTS IF21-VALH-0153 0 0000-00-00 00:00:00.000 0.000 00:00:00
VALHALLA LOFTS IF21-VALH-0158 0 0000-00-00 00:00:00.000 0.000 00:00:00